Lowville, New York
Current Conditions -  °F | °C
As of 7:38 PM on Tuesday 25 Nov 2014 (Local Time) from KGTB Reporting Station
Light Rain Light Rain  
Wind Chill: -3°   Ceiling: 900
Heat Index:   Visibility: 5mi
Dew Point:   Wind: 13mph
Humidity: 87%   Direction: 270°W
Pressure: 30.04"   Gusts: 24mph
Location:  43.79°N, 75.49°W
Report Text: KGTB 260038Z AUTO 27011G21KT 5SM -RA BR BKN009 BKN014 OVC020 02/00 A3004 RMK AO2 UPB2359E0006RAE2359DZB0006
Loading
Personal Weather Stations






























Interactive Weather Map New forecast layout! Learn more

10-Day Weather Forecast

Advertisements
Track Severe Weather on mobile